ETIH 210056Z AUTO 00000KT 9999 OVC045 09/06 A3024 RMK AO2 SLP244 T00880062 ETIH 202356Z AUTO 00000KT 9999 OVC046 09/06 A3024 RMK AO2 SLP244 T00870063 10115 20087 52008 ETIH 202256Z AUTO 00000KT 9999 OVC047 09/07 A3023 RMK AO2 SLP241 T00910065 ETIH 202156Z AUTO 00000KT 9999 OVC047 09/07 A3022 RMK AO2 SLP239 T00930069 401360087 ETIH 202056Z AUTO 00000KT 9999 OVC048 10/07 A3022 RMK AO2 SLP239 T00990068 52014 ETIH 201956Z AUTO 00000KT 9999 OVC045 11/07 A3020 RMK AO2 SLP232 T01060067 ETIH 201856Z AUTO 00000KT 9999 OVC045 11/07 A3019 RMK AO2 SLP229 T01060067 ETIH 201756Z AUTO 00000KT 9999 OVC043 12/06 A3018 RMK AO2 SLP225 T01160061 10136 20116 52016 ETIH 201656Z AUTO 00000KT 9999 OVC045 12/05 A3016 RMK AO2 SLP217 T01220054 ETIH 201556Z AUTO 00000KT 9999 OVC044 13/04 A3013 RMK AO2 SLP206 T01290041 ETIH 201456Z AUTO 30003KT 9999 OVC043 13/04 A3013 RMK AO2 SLP206 T01320041 53004 ETIH 201356Z AUTO 35003KT 9999 OVC042 13/04 A3012 RMK AO2 SLP203 T01340035 ETIH 201256Z AUTO 01004KT 9999 BKN041 13/04 A3011 RMK AO2 SLP199 T01330039 ETIH 201156Z AUTO 36003KT 9999 OVC041 13/04 A3011 RMK AO2 DZB37E45RAB45E47RAB47E47 SLP199 P0000 60000 T01300036 10130 20089 50002 ETIH 201147Z AUTO 36004KT 9999 OVC041 13/04 A3011 RMK AO2 DZB37E45RAB45E47RAB47 SLP199 $ ETIH 201137Z AUTO 03003KT 9999 -DZ OVC041 13/03 A3011 RMK AO2 DZB37 SLP199 $ ETIH 201056Z AUTO 31003KT 9999 OVC039 12/04 A3011 RMK AO2 SLP199 T01200035 ETIH 200956Z AUTO 00000KT 9999 OVC037 11/05 A3011 RMK AO2 SLP199 T01120046 ETIH 200856Z AUTO 00000KT 9999 OVC034 10/06 A3011 RMK AO2 SLP201 T01020056 52011 ETIH 200756Z AUTO 33003KT 9999 OVC032 10/06 A3009 RMK AO2 SLP193 T00950057 ETIH 200656Z AUTO 00000KT 9999 OVC033 09/06 A3009 RMK AO2 SLP195 T00920056 ETIH 200556Z AUTO 00000KT 9999 OVC037 09/06 A3007 RMK AO2 SLP188 T00890055 10096 20087 52010 ETIH 200456Z AUTO 00000KT 9999 OVC036 09/05 A3006 RMK AO2 SLP182 T00900054 ETIH 200356Z AUTO 00000KT 9999 OVC033 09/06 A3005 RMK AO2 SLP179 T00910055 ETIH 200341Z AUTO 00000KT 9999 OVC031 09/05 A3005 RMK AO2 SLP177 $ ETIH 200301Z AUTO 00000KT 9999 OVC029 09/05 A3004 RMK AO2 SLP174 $ ETIH 200256Z AUTO 00000KT 9999 OVC030 09/05 A3004 RMK AO2 SLP174 T00920054 52005 ETIH 200156Z AUTO 00000KT 9999 OVC032 09/05 A3004 RMK AO2 SLP174 T00930053 ETIH 200056Z AUTO 00000KT 9999 OVC032 09/05 A3003 RMK AO2 SLP170 T00930053 ETIH 192356Z AUTO 00000KT 9999 OVC034 09/05 A3003 RMK AO2 SLP168 T00930051 10117 20093 50004 ETIH 192256Z AUTO 06003KT 9999 OVC034 10/05 A3002 RMK AO2 SLP165 T00980048 ETIH 192156Z AUTO 00000KT 9999 OVC030 10/06 A3003 RMK AO2 SLP170 T01020058 401640049 ETIH 192056Z AUTO 05004KT 9999 OVC030 11/07 A3001 RMK AO2 SLP163 T01080065 52011 ETIH 192016Z AUTO 04004KT 9999 OVC030 11/07 A3001 RMK AO2 SLP163 $ ETIH 191956Z AUTO 05008KT 9999 OVC029 11/08 A3000 RMK AO2 SLP162 T01140075 ETIH 191946Z AUTO 05004KT 9999 OVC030 11/08 A3000 RMK AO2 SLP162 $ ETIH 191901Z AUTO 04003KT 9999 OVC029 12/08 A2999 RMK AO2 SLP158 $ ETIH 191856Z AUTO 05004KT 9999 OVC031 12/08 A2999 RMK AO2 SLP158 T01160079 ETIH 191756Z AUTO 00000KT 9999 CLR 12/08 A2998 RMK AO2 SLP159 T01160079 10164 20116 52009 ETIH 191656Z AUTO 00000KT 9999 OVC044 13/09 A2996 RMK AO2 SLP152 T01330086 ETIH 191556Z AUTO 00000KT 9999 OVC045 14/09 A2996 RMK AO2 SLP150 T01380086 ETIH 191456Z AUTO 00000KT 9999 OVC042 15/09 A2996 RMK AO2 SLP148 T01450089 53002 ETIH 191356Z AUTO 04007KT 9999 OVC042 15/09 A2994 RMK AO2 SLP141 T01530090

METAR Messwerte

Zurück zur Übersicht

Ort
m ü. NN
Zeit Temperatur Taupunkt Rel.
Luftfeuchte
Luftdruck:
Altimeter
NN
Station
Wind in Beaufort
(Knoten)
Sichtweite
(Meter)
Wolken
(Meter über Grund)
Wettererscheinung
Hohenfels
442
Di 21.09. 02:569681 %1024
1025
972
Windstill>= 10000Bedeckt (1400) 
Hohenfels
442
Di 21.09. 01:569681 %1024
1025
972
Windstill>= 10000Bedeckt (1400) 
Hohenfels
442
Di 21.09. 00:569787 %1024
1025
972
Windstill>= 10000Bedeckt (1400) 
Hohenfels
442
Mo 20.09. 23:569787 %1023
1024
971
Windstill>= 10000Bedeckt (1400) 
Hohenfels
442
Mo 20.09. 22:5610782 %1023
1024
971
Windstill>= 10000Bedeckt (1500) 
Hohenfels
442
Mo 20.09. 21:5611776 %1023
1024
971
Windstill>= 10000Bedeckt (1400) 
Hohenfels
442
Mo 20.09. 20:5611776 %1022
1023
970
Windstill>= 10000Bedeckt (1400) 
Hohenfels
442
Mo 20.09. 19:5612667 %1022
1023
970
Windstill>= 10000Bedeckt (1300) 
Hohenfels
442
Mo 20.09. 18:5612562 %1021
1022
969
Windstill>= 10000Bedeckt (1400) 
Hohenfels
442
Mo 20.09. 17:5613454 %1020
1020
968
Windstill>= 10000Bedeckt (1300) 
Hohenfels
442
Mo 20.09. 16:5613454 %1020
1020
968
WNW 2 (3)>= 10000Bedeckt (1300) 
Hohenfels
442
Mo 20.09. 15:5613454 %1020
1020
968
N 2 (3)>= 10000Bedeckt (1300) 
Hohenfels
442
Mo 20.09. 14:5613454 %1020
1020
968
N 2 (4)>= 10000Stark bewölkt (1200) 
Hohenfels
442
Mo 20.09. 13:5613454 %1020
1020
968
N 2 (3)>= 10000Bedeckt (1200) 
Hohenfels
442
Mo 20.09. 13:4713454 %1020
1020
968
N 2 (4)>= 10000Bedeckt (1200) 
Hohenfels
442
Mo 20.09. 13:3713351 %1020
1020
968
NNO 2 (3)>= 10000Bedeckt (1200)Nieselregen (schwach)
Hohenfels
442
Mo 20.09. 12:5612458 %1020
1021
968
NW 2 (3)>= 10000Bedeckt (1200) 
Hohenfels
442
Mo 20.09. 11:5611566 %1020
1021
968
Windstill>= 10000Bedeckt (1100) 
Hohenfels
442
Mo 20.09. 10:5610676 %1020
1021
968
Windstill>= 10000Bedeckt (1000) 
Hohenfels
442
Mo 20.09. 09:5610676 %1019
1020
967
NNW 2 (3)>= 10000Bedeckt (980) 
Hohenfels
442
Mo 20.09. 08:569681 %1019
1020
967
Windstill>= 10000Bedeckt (1000) 
Hohenfels
442
Mo 20.09. 07:569681 %1018
1019
966
Windstill>= 10000Bedeckt (1100) 
Hohenfels
442
Mo 20.09. 06:569576 %1018
1019
966
Windstill>= 10000Bedeckt (1100) 
Hohenfels
442
Mo 20.09. 05:569681 %1018
1019
966
Windstill>= 10000Bedeckt (1000) 
Hohenfels
442
Mo 20.09. 05:419576 %1018
1019
966
Windstill>= 10000Bedeckt (940) 
Hohenfels
442
Mo 20.09. 05:019576 %1017
1018
965
Windstill>= 10000Bedeckt (880) 
Hohenfels
442
Mo 20.09. 04:569576 %1017
1018
965
Windstill>= 10000Bedeckt (910) 
Hohenfels
442
Mo 20.09. 03:569576 %1017
1018
965
Windstill>= 10000Bedeckt (980) 
Hohenfels
442
Mo 20.09. 02:569576 %1017
1018
965
Windstill>= 10000Bedeckt (980) 
Hohenfels
442
Mo 20.09. 01:569576 %1017
1018
965
Windstill>= 10000Bedeckt (1000) 
Hohenfels
442
Mo 20.09. 00:5610571 %1017
1018
965
ONO 2 (3)>= 10000Bedeckt (1000) 
Hohenfels
442
So 19.09. 23:5610676 %1017
1018
965
Windstill>= 10000Bedeckt (910) 
Hohenfels
442
So 19.09. 22:5611776 %1016
1017
964
NO 2 (4)>= 10000Bedeckt (910) 
Hohenfels
442
So 19.09. 22:1611776 %1016
1017
964
NO 2 (4)>= 10000Bedeckt (910) 
Hohenfels
442
So 19.09. 21:5611882 %1016
1017
964
NO 3 (8)>= 10000Bedeckt (880) 
Hohenfels
442
So 19.09. 21:4611882 %1016
1017
964
NO 2 (4)>= 10000Bedeckt (910) 
Hohenfels
442
So 19.09. 21:0112876 %1016
1017
964
NO 2 (3)>= 10000Bedeckt (880) 
Hohenfels
442
So 19.09. 20:5612876 %1016
1017
964
NO 2 (4)>= 10000Bedeckt (940) 
Hohenfels
442
So 19.09. 19:5612876 %1015
1016
963
Windstill>= 10000  
Hohenfels
442
So 19.09. 18:5613977 %1015
1015
963
Windstill>= 10000Bedeckt (1300) 
Hohenfels
442
So 19.09. 17:5614972 %1015
1015
963
Windstill>= 10000Bedeckt (1400) 
Hohenfels
442
So 19.09. 16:5615967 %1015
1015
963
Windstill>= 10000Bedeckt (1300) 
Hohenfels
442
So 19.09. 15:5615967 %1014
1014
962
NO 3 (7)>= 10000Bedeckt (1300) 

Altimeter: Einstellung am Altimeter (Höhenmesser), die Höhe 0 muss auf diesen Luftdruckwert zeigen, damit das Gerät die Stationshöhe richtig anzeigt.

NN: Luftdruck reduziert auf "Normal Null", auf Meereshöhe, dieser von der Temperatur abhängige Wert wird bisweilen unkorrekt einfach als "Luftdruck" bezeichnet. Eigentlich nur eine fiktive Größe, die es erlaubt, Stationen auf unterschiedlichen Höhen miteinander zu vergleichen.

Station: Realer Luftdruck an der Station.